Time;durP1;ratioP1;P1;durP2;ratioP2;P2;SDS_P1;SDS_P2;PMS_P1;PMS_P2;Temp;Humidity;BMP_temperature;BMP_pressure;BME280_temperature;BME280_humidity;BME280_pressure;Samples;Min_cycle;Max_cycle;Signal;HPM_P1;HPM_P2
2022/11/11 00:01:11;;;;;;;35.58;6.70;;;;;;;1.68;100.00;95234.19;4895689;29;20048;-53
2022/11/11 00:03:38;;;;;;;57.83;6.60;;;;;;;1.64;100.00;95227.84;4895599;29;20057;-53
2022/11/11 00:06:09;;;;;;;91.07;8.50;;;;;;;1.40;100.00;95223.81;4895763;29;20048;-52
2022/11/11 00:08:35;;;;;;;73.25;9.23;;;;;;;1.42;100.00;95226.97;4878820;29;20108;-52
2022/11/11 00:11:07;;;;;;;47.65;8.90;;;;;;;1.36;100.00;95228.28;4895689;29;20056;-51
2022/11/11 00:13:39;;;;;;;108.55;8.30;;;;;;;1.32;100.00;95224.63;4895478;29;20057;-55
2022/11/11 00:16:07;;;;;;;45.45;7.35;;;;;;;1.49;100.00;95224.56;4895483;29;20047;-51
2022/11/11 00:27:04;;;;;;;65.13;6.32;;;;;;;1.02;100.00;95226.47;4894458;29;20741;-54
2022/11/11 00:29:31;;;;;;;43.10;8.13;;;;;;;1.19;100.00;95232.63;4896074;29;20115;-57
2022/11/11 00:35:52;;;;;;;53.13;10.43;;;;;;;1.33;100.00;95228.94;4894603;29;20508;-52
2022/11/11 00:37:32;;;;;;;36.42;7.57;;;;;;;1.40;100.00;95226.50;4881443;29;20052;-52
2022/11/11 00:39:58;;;;;;;36.45;8.15;;;;;;;1.50;100.00;95230.75;4903493;29;21581;-54
2022/11/11 00:42:26;;;;;;;61.35;7.07;;;;;;;1.40;100.00;95230.00;4914526;29;20056;-53
2022/11/11 00:44:53;;;;;;;40.50;6.10;;;;;;;1.34;100.00;95234.00;4913742;29;20517;-54
2022/11/11 00:52:54;;;;;;;48.03;6.53;;;;;;;1.31;100.00;95228.44;4913773;29;20052;-58
2022/11/11 00:55:21;;;;;;;34.08;5.65;;;;;;;1.14;100.00;95229.31;4897215;29;20052;-54
2022/11/11 00:57:47;;;;;;;39.50;6.00;;;;;;;1.03;100.00;95230.75;4913606;29;20060;-51
2022/11/11 01:00:14;;;;;;;44.97;5.57;;;;;;;1.00;100.00;95229.50;4913472;29;20047;-55
2022/11/11 01:02:41;;;;;;;80.43;17.50;;;;;;;0.91;100.00;95231.44;4913446;29;20098;-53
2022/11/11 01:05:08;;;;;;;50.08;8.35;;;;;;;1.02;100.00;95229.97;4913677;29;20048;-51
2022/11/11 01:07:34;;;;;;;63.72;10.88;;;;;;;1.05;100.00;95234.75;4913357;29;20489;-53
2022/11/11 01:10:02;;;;;;;38.97;7.93;;;;;;;1.15;100.00;95234.38;4913611;29;20051;-58
2022/11/11 01:12:28;;;;;;;88.45;11.85;;;;;;;1.19;100.00;95229.94;4913620;29;20056;-53
2022/11/11 01:14:55;;;;;;;35.72;7.22;;;;;;;1.10;100.00;95225.66;4913430;29;20052;-54
2022/11/11 01:17:22;;;;;;;37.88;6.05;;;;;;;0.99;100.00;95226.00;4896719;29;20048;-57
2022/11/11 01:19:48;;;;;;;57.65;7.95;;;;;;;0.84;100.00;95215.69;4913059;29;20656;-56
2022/11/11 01:22:15;;;;;;;40.53;6.70;;;;;;;0.85;100.00;95230.03;4896472;29;20306;-53
2022/11/11 01:24:42;;;;;;;32.47;5.93;;;;;;;0.83;100.00;95229.56;4913154;29;20436;-51
2022/11/11 01:27:08;;;;;;;32.20;5.55;;;;;;;0.74;100.00;95234.94;4896366;29;20133;-50
2022/11/11 01:29:36;;;;;;;64.50;6.30;;;;;;;0.76;100.00;95238.13;4913031;29;20052;-54
2022/11/11 01:32:03;;;;;;;45.53;5.60;;;;;;;0.68;100.00;95252.44;4912749;29;20040;-56
2022/11/11 01:34:29;;;;;;;66.10;6.03;;;;;;;0.67;100.00;95245.47;4896476;29;20520;-55
2022/11/11 01:36:56;;;;;;;47.72;5.75;;;;;;;0.70;100.00;95242.91;4896044;29;20046;-55
2022/11/11 01:39:23;;;;;;;70.85;13.15;;;;;;;0.79;100.00;95243.69;4908097;29;20571;-55
2022/11/11 01:41:50;;;;;;;58.88;8.70;;;;;;;0.88;100.00;95245.59;4893836;29;20052;-53
2022/11/11 01:44:38;;;;;;;51.00;6.40;;;;;;;0.95;100.00;95245.91;4893933;29;20048;-55
2022/11/11 01:47:06;;;;;;;67.10;12.30;;;;;;;0.95;100.00;95241.28;4892388;29;20422;-53
2022/11/11 01:49:51;;;;;;;55.97;6.68;;;;;;;0.64;100.00;95243.38;4893712;29;20051;-54
2022/11/11 01:52:25;;;;;;;61.55;6.25;;;;;;;0.50;100.00;95255.16;4893822;29;20052;-57
2022/11/11 01:55:04;;;;;;;90.05;7.25;;;;;;;0.53;100.00;95256.44;4905980;29;20938;-52
2022/11/11 01:57:39;;;;;;;38.97;5.93;;;;;;;0.49;100.00;95253.56;4913086;29;20050;-56
2022/11/11 02:00:10;;;;;;;59.50;8.00;;;;;;;0.57;100.00;95244.66;4911679;29;21657;-54
2022/11/11 02:02:43;;;;;;;46.25;6.63;;;;;;;0.47;100.00;95249.59;4912629;29;20044;-55
2022/11/11 02:08:03;;;;;;;28.20;5.80;;;;;;;0.47;100.00;95266.59;4911936;29;20786;-53
2022/11/11 02:10:32;;;;;;;22.40;6.93;;;;;;;0.58;100.00;95265.19;4912678;29;20063;-54
2022/11/11 02:15:45;;;;;;;20.08;6.90;;;;;;;0.59;100.00;95280.25;4912361;29;20048;-55
2022/11/11 02:18:12;;;;;;;52.75;7.28;;;;;;;0.70;100.00;95278.03;4895500;29;20062;-55
2022/11/11 02:20:43;;;;;;;40.75;6.25;;;;;;;0.77;100.00;95281.03;4911973;29;20114;-53
2022/11/11 02:23:45;;;;;;;40.55;7.53;;;;;;;0.84;100.00;95287.88;4912392;29;20052;-53
2022/11/11 02:26:15;;;;;;;95.47;7.83;;;;;;;0.77;100.00;95280.25;4894587;29;21776;-51
2022/11/11 02:28:43;;;;;;;31.55;6.18;;;;;;;0.75;100.00;95275.16;4895051;29;20052;-50
2022/11/11 02:31:10;;;;;;;279.73;99.20;;;;;;;0.76;100.00;95268.63;4911722;29;20106;-53
2022/11/11 02:33:36;;;;;;;57.13;11.10;;;;;;;0.77;100.00;95272.16;4911895;29;20072;-53
2022/11/11 02:36:04;;;;;;;112.35;12.00;;;;;;;0.72;100.00;95275.78;4912454;29;20118;-51
2022/11/11 02:38:31;;;;;;;81.23;7.70;;;;;;;0.52;100.00;95274.53;4912327;29;20048;-56
2022/11/11 02:43:43;;;;;;;72.28;9.07;;;;;;;0.49;100.00;95271.69;4911831;29;20067;-50
2022/11/11 02:46:10;;;;;;;120.30;8.93;;;;;;;0.42;100.00;95271.34;4911735;29;20074;-54
2022/11/11 02:48:36;;;;;;;44.45;5.72;;;;;;;0.49;100.00;95269.00;4911624;29;20048;-53
2022/11/11 02:51:04;;;;;;;57.90;9.23;;;;;;;0.39;100.00;95281.69;4895263;29;20044;-55
2022/11/11 02:53:31;;;;;;;49.03;7.72;;;;;;;0.43;100.00;95279.16;4911956;29;20067;-53
2022/11/11 02:55:58;;;;;;;36.33;7.13;;;;;;;0.47;100.00;95282.00;4910166;29;20429;-54
2022/11/11 02:58:25;;;;;;;50.75;7.80;;;;;;;0.53;100.00;95286.16;4914538;29;20426;-54
2022/11/11 03:00:52;;;;;;;53.30;8.32;;;;;;;0.52;100.00;95285.31;4915444;29;20058;-53
2022/11/11 03:03:18;;;;;;;48.73;5.77;;;;;;;0.36;100.00;95292.31;4898868;29;20056;-55
2022/11/11 03:05:45;;;;;;;29.80;5.18;;;;;;;0.01;100.00;95294.19;4915478;29;20056;-52
2022/11/11 03:08:12;;;;;;;34.97;5.43;;;;;;;0.04;100.00;95297.06;4898759;29;20110;-54
2022/11/11 03:10:39;;;;;;;23.08;5.85;;;;;;;0.06;100.00;95294.84;4898729;29;20060;-54
2022/11/11 03:13:06;;;;;;;33.83;6.13;;;;;;;-0.01;100.00;95295.28;4915696;29;20648;-52
2022/11/11 03:15:33;;;;;;;22.50;7.38;;;;;;;0.05;100.00;95287.84;4898328;29;20428;-52
2022/11/11 03:18:00;;;;;;;21.45;5.60;;;;;;;0.06;100.00;95289.44;4899081;29;20040;-53
2022/11/11 03:23:14;;;;;;;19.08;5.00;;;;;;;-0.05;100.00;95296.22;4914530;29;20909;-56
2022/11/11 03:25:43;;;;;;;35.85;5.43;;;;;;;-0.06;100.00;95294.63;4914810;29;20114;-53
2022/11/11 03:28:11;;;;;;;21.37;4.83;;;;;;;-0.05;100.00;95298.91;4915199;29;20118;-58
2022/11/11 03:30:40;;;;;;;30.20;5.72;;;;;;;-0.07;100.00;95299.22;4898155;29;20425;-52
2022/11/11 03:33:07;;;;;;;21.27;5.22;;;;;;;0.00;100.00;95301.50;4915570;29;20044;-53
2022/11/11 03:35:35;;;;;;;16.08;5.00;;;;;;;0.04;100.00;95307.03;4914945;29;20110;-53
2022/11/11 03:38:23;;;;;;;28.38;4.90;;;;;;;0.04;100.00;95307.84;4915524;29;20048;-51
2022/11/11 03:40:57;;;;;;;41.70;5.77;;;;;;;0.01;100.00;95304.97;4879075;29;20561;-52
2022/11/11 03:43:27;;;;;;;26.13;5.22;;;;;;;0.01;100.00;95308.47;4877528;29;20056;-51
2022/11/11 03:45:55;;;;;;;21.92;4.93;;;;;;;-0.10;100.00;95302.56;4877359;29;20051;-53
2022/11/11 03:48:23;;;;;;;19.90;5.38;;;;;;;-0.10;100.00;95294.47;4877538;29;20053;-53
2022/11/11 03:50:50;;;;;;;29.63;5.20;;;;;;;-0.05;100.00;95301.63;4877258;29;20465;-51
2022/11/11 03:53:21;;;;;;;13.87;4.53;;;;;;;-0.27;100.00;95292.50;4877407;29;20060;-52
2022/11/11 03:55:49;;;;;;;17.77;4.50;;;;;;;-0.39;100.00;95294.22;4868790;29;20450;-52
2022/11/11 03:58:17;;;;;;;42.35;5.18;;;;;;;-0.38;100.00;95302.00;4896705;29;20048;-56
2022/11/11 04:00:44;;;;;;;32.78;5.38;;;;;;;-0.38;100.00;95303.88;4895307;29;20052;-53
2022/11/11 04:11:47;;;;;;;28.83;5.40;;;;;;;-0.28;100.00;95299.03;4895215;29;20107;-49
2022/11/11 04:16:58;;;;;;;35.17;5.32;;;;;;;-0.26;100.00;95293.31;4895062;29;20316;-50
2022/11/11 04:22:10;;;;;;;34.78;5.22;;;;;;;-0.29;100.00;95302.81;4894829;29;20048;-55
2022/11/11 04:27:22;;;;;;;131.10;7.70;;;;;;;-0.29;100.00;95296.63;4895424;29;20135;-53
2022/11/11 04:29:50;;;;;;;58.75;6.20;;;;;;;-0.21;100.00;95290.47;4878432;29;20747;-55
2022/11/11 04:32:35;;;;;;;71.60;6.07;;;;;;;-0.16;100.00;95298.44;4895141;29;20107;-54
2022/11/11 04:35:09;;;;;;;49.90;5.95;;;;;;;-0.18;100.00;95292.56;4894387;29;20926;-54
2022/11/11 04:37:45;;;;;;;56.72;5.30;;;;;;;-0.23;100.00;95295.38;4878039;29;20056;-57
2022/11/11 04:42:57;;;;;;;50.35;6.00;;;;;;;-0.19;100.00;95290.94;4913377;29;20526;-52
2022/11/11 04:45:26;;;;;;;47.13;6.83;;;;;;;-0.11;100.00;95286.69;4914127;29;20048;-55
2022/11/11 04:48:04;;;;;;;53.08;12.85;;;;;;;0.14;100.00;95272.47;4913718;29;20048;-52
2022/11/11 04:50:33;;;;;;;30.52;6.07;;;;;;;0.10;100.00;95278.78;4913737;29;20056;-52
2022/11/11 04:53:01;;;;;;;31.85;5.05;;;;;;;0.16;100.00;95288.31;4872236;29;20489;-53
2022/11/11 04:58:14;;;;;;;22.93;6.00;;;;;;;0.25;100.00;95289.13;4913062;29;20711;-54
2022/11/11 05:00:41;;;;;;;31.27;6.20;;;;;;;0.35;100.00;95285.34;4913079;29;20040;-57
2022/11/11 05:03:15;;;;;;;32.80;5.15;;;;;;;0.33;100.00;95293.75;4896881;29;20044;-57
2022/11/11 05:11:23;;;;;;;67.13;5.40;;;;;;;0.12;100.00;95320.56;4913485;29;20052;-54
2022/11/11 05:22:21;;;;;;;16.08;5.28;;;;;;;0.32;100.00;95329.16;4912719;29;20217;-53
2022/11/11 05:27:33;;;;;;;26.30;5.80;;;;;;;0.33;100.00;95328.06;4912756;29;20052;-54
2022/11/11 05:30:00;;;;;;;31.00;6.25;;;;;;;0.45;100.00;95330.16;4896507;29;20424;-56
2022/11/11 05:32:27;;;;;;;16.02;5.70;;;;;;;0.57;100.00;95330.31;4912804;29;20052;-54
2022/11/11 05:34:53;;;;;;;25.00;5.50;;;;;;;0.56;100.00;95334.13;4908685;29;20048;-55
2022/11/11 05:37:20;;;;;;;28.37;4.90;;;;;;;0.48;100.00;95349.19;4882477;29;20061;-59
2022/11/11 05:39:47;;;;;;;56.42;5.75;;;;;;;0.46;100.00;95356.81;4870923;29;20044;-55
2022/11/11 05:42:14;;;;;;;75.53;5.70;;;;;;;0.33;100.00;95355.84;4884898;29;20459;-53
2022/11/11 05:44:40;;;;;;;33.35;5.15;;;;;;;0.34;100.00;95357.47;4882685;29;20108;-55
2022/11/11 05:47:07;;;;;;;50.97;5.50;;;;;;;0.27;100.00;95362.50;4884792;29;20434;-54
2022/11/11 05:49:34;;;;;;;25.20;5.83;;;;;;;0.34;100.00;95364.75;4884024;29;20041;-57
2022/11/11 05:52:02;;;;;;;71.10;6.70;;;;;;;0.25;100.00;95359.34;4882237;29;20041;-52
2022/11/11 05:54:28;;;;;;;68.55;7.28;;;;;;;0.15;100.00;95365.03;4867803;29;20048;-56
2022/11/11 05:56:55;;;;;;;81.38;7.53;;;;;;;0.03;100.00;95370.22;4884425;29;20045;-57
2022/11/11 05:59:22;;;;;;;162.73;9.70;;;;;;;-0.15;100.00;95372.84;4866247;29;20482;-54
2022/11/11 06:01:48;;;;;;;82.43;7.50;;;;;;;-0.04;100.00;95379.56;4884429;29;20065;-51
2022/11/11 06:04:15;;;;;;;78.47;7.82;;;;;;;0.01;100.00;95380.53;4883672;29;20450;-56
2022/11/11 06:06:44;;;;;;;42.70;7.75;;;;;;;0.05;100.00;95387.69;4884250;29;20099;-55
2022/11/11 06:09:11;;;;;;;44.30;7.03;;;;;;;0.27;100.00;95389.50;4879836;29;20053;-55
2022/11/11 06:11:38;;;;;;;39.65;7.95;;;;;;;0.34;100.00;95394.44;4874000;29;20108;-55
2022/11/11 06:14:05;;;;;;;50.33;6.63;;;;;;;0.22;100.00;95405.84;4874891;29;20112;-55
2022/11/11 06:16:31;;;;;;;75.60;6.93;;;;;;;0.09;100.00;95407.56;4874726;29;20057;-53
2022/11/11 06:18:59;;;;;;;43.13;6.55;;;;;;;0.18;100.00;95407.56;4874108;29;20049;-53
2022/11/11 06:21:26;;;;;;;49.97;6.88;;;;;;;-0.02;100.00;95406.22;4874454;29;20055;-57
2022/11/11 06:23:53;;;;;;;68.93;8.10;;;;;;;-0.12;100.00;95411.91;4874234;29;20060;-57
2022/11/11 06:26:20;;;;;;;57.17;8.13;;;;;;;0.04;100.00;95406.91;4875046;29;20108;-54
2022/11/11 06:28:56;;;;;;;33.00;7.75;;;;;;;0.04;100.00;95412.28;4874257;29;20057;-54
2022/11/11 06:31:24;;;;;;;58.97;7.90;;;;;;;0.11;100.00;95410.75;4874344;29;20120;-54
2022/11/11 06:33:52;;;;;;;45.20;9.02;;;;;;;0.19;100.00;95417.28;4874102;29;20049;-55
2022/11/11 06:36:20;;;;;;;64.47;7.53;;;;;;;0.10;100.00;95433.47;4874731;29;20112;-54
2022/11/11 06:38:47;;;;;;;30.33;7.67;;;;;;;0.15;100.00;95429.81;4874260;29;20053;-54
2022/11/11 06:41:14;;;;;;;26.20;7.40;;;;;;;0.27;100.00;95434.63;4911883;29;20047;-55
2022/11/11 06:43:42;;;;;;;23.08;8.07;;;;;;;0.37;100.00;95431.66;4894665;29;20052;-55
2022/11/11 06:46:19;;;;;;;69.32;7.90;;;;;;;0.46;100.00;95439.75;4912356;29;20094;-56
2022/11/11 06:48:46;;;;;;;54.97;9.18;;;;;;;0.50;100.00;95438.03;4911389;29;20127;-56
2022/11/11 06:51:13;;;;;;;37.63;7.00;;;;;;;0.46;100.00;95445.16;4895456;29;20062;-55
2022/11/11 06:53:41;;;;;;;35.58;6.97;;;;;;;0.58;100.00;95439.94;4894452;29;20054;-57
2022/11/11 06:56:11;;;;;;;35.15;7.35;;;;;;;0.50;100.00;95443.41;4895273;29;20445;-54
2022/11/11 06:58:38;;;;;;;37.08;7.68;;;;;;;0.57;100.00;95443.78;4911334;29;20398;-57
2022/11/11 07:01:06;;;;;;;30.77;7.55;;;;;;;0.56;100.00;95440.28;4911826;29;20095;-54
2022/11/11 07:03:33;;;;;;;27.03;6.17;;;;;;;0.27;100.00;95437.31;4911323;29;20056;-54
2022/11/11 07:06:02;;;;;;;43.47;7.63;;;;;;;0.35;100.00;95436.56;4895156;29;20048;-57
2022/11/11 07:08:29;;;;;;;31.15;7.88;;;;;;;0.38;100.00;95430.53;4911898;29;20465;-55
2022/11/11 07:10:56;;;;;;;34.22;6.10;;;;;;;0.38;100.00;95428.63;4911648;29;20516;-57
2022/11/11 07:13:23;;;;;;;51.28;6.18;;;;;;;0.31;100.00;95433.69;4895006;29;20056;-60
2022/11/11 07:15:49;;;;;;;43.43;6.63;;;;;;;0.54;100.00;95433.59;4911630;29;20048;-56
2022/11/11 07:18:16;;;;;;;36.97;6.22;;;;;;;0.50;100.00;95435.31;4911886;29;20219;-57
2022/11/11 07:20:43;;;;;;;69.30;9.00;;;;;;;0.62;100.00;95443.63;4911223;29;20048;-55
2022/11/11 07:23:09;;;;;;;30.92;6.82;;;;;;;0.71;100.00;95436.34;4895000;29;20044;-55
2022/11/11 07:25:36;;;;;;;23.02;6.95;;;;;;;0.77;100.00;95443.19;4911250;29;20505;-51
2022/11/11 07:28:03;;;;;;;33.47;6.53;;;;;;;0.99;100.00;95446.88;4912173;29;20050;-55
2022/11/11 07:30:29;;;;;;;34.47;7.38;;;;;;;1.18;100.00;95441.94;4911480;29;20048;-55
2022/11/11 07:32:56;;;;;;;50.45;8.48;;;;;;;0.99;100.00;95452.28;4911420;29;20056;-54
2022/11/11 07:35:23;;;;;;;39.38;8.63;;;;;;;1.30;100.00;95443.22;4911925;29;20048;-55
2022/11/11 07:37:50;;;;;;;22.73;10.15;;;;;;;1.63;100.00;95440.81;4911243;29;20048;-55
2022/11/11 07:40:18;;;;;;;44.77;9.70;;;;;;;1.90;100.00;95441.56;4900316;29;20293;-57
2022/11/11 07:42:45;;;;;;;37.72;14.13;;;;;;;1.79;100.00;95444.59;4892306;29;20053;-58
2022/11/11 07:45:12;;;;;;;30.20;12.00;;;;;;;2.11;100.00;95444.34;4895139;29;20064;-54
2022/11/11 07:47:42;;;;;;;22.67;8.40;;;;;;;2.29;100.00;95445.09;4895892;29;20048;-54
2022/11/11 07:50:09;;;;;;;22.38;8.32;;;;;;;2.75;100.00;95452.34;4879603;29;20048;-58
2022/11/11 07:52:36;;;;;;;29.90;6.73;;;;;;;2.48;100.00;95450.13;4895623;29;20359;-57
2022/11/11 07:55:04;;;;;;;52.55;7.28;;;;;;;2.63;100.00;95449.56;4896273;29;20044;-54
2022/11/11 07:57:31;;;;;;;16.05;5.70;;;;;;;2.76;100.00;95453.16;4896297;29;20472;-57
2022/11/11 07:59:58;;;;;;;19.92;5.55;;;;;;;3.06;100.00;95462.06;4895288;29;21590;-53
2022/11/11 08:02:24;;;;;;;29.45;6.43;;;;;;;3.51;100.00;95466.06;4896154;29;20075;-58
2022/11/11 08:04:51;;;;;;;59.90;6.37;;;;;;;3.37;100.00;95467.09;4895707;29;20056;-54
2022/11/11 08:07:22;;;;;;;47.97;6.72;;;;;;;3.23;100.00;95468.50;4896258;29;20048;-56
2022/11/11 08:09:50;;;;;;;50.22;7.30;;;;;;;2.91;100.00;95468.06;4895474;29;20051;-56
2022/11/11 08:15:04;;;;;;;29.15;7.13;;;;;;;3.73;100.00;95464.91;4895140;29;20454;-54
2022/11/11 08:17:38;;;;;;;20.10;6.70;;;;;;;4.23;100.00;95466.66;4895224;29;20040;-57
2022/11/11 08:20:09;;;;;;;36.70;6.93;;;;;;;4.03;98.37;95471.00;4895860;29;20044;-54
2022/11/11 08:22:40;;;;;;;39.92;7.15;;;;;;;4.17;98.84;95473.44;4895084;29;20052;-55
2022/11/11 08:25:10;;;;;;;21.58;7.47;;;;;;;4.58;97.42;95475.16;4896051;29;20466;-57
2022/11/11 08:27:37;;;;;;;47.28;8.60;;;;;;;4.70;95.59;95470.88;4895175;29;20052;-53
2022/11/11 08:30:05;;;;;;;22.23;7.70;;;;;;;5.23;93.79;95474.47;4895676;29;20045;-58
2022/11/11 08:32:32;;;;;;;21.58;7.18;;;;;;;5.11;91.64;95469.84;4878073;29;20061;-57
2022/11/11 08:34:59;;;;;;;20.52;6.68;;;;;;;5.73;89.61;95469.69;4895467;29;20060;-58
2022/11/11 08:37:27;;;;;;;18.73;6.03;;;;;;;6.37;85.61;95457.81;4895723;29;20048;-55
2022/11/11 08:39:54;;;;;;;20.40;6.07;;;;;;;5.82;86.48;95466.84;4904030;29;20052;-58
2022/11/11 08:42:20;;;;;;;20.23;6.10;;;;;;;6.01;85.01;95456.09;4914413;29;20048;-58
2022/11/11 08:44:47;;;;;;;28.60;6.28;;;;;;;6.27;83.02;95458.34;4913696;29;20089;-54
2022/11/11 08:47:14;;;;;;;12.25;6.45;;;;;;;5.98;85.58;95457.59;4913875;29;20678;-57
2022/11/11 08:49:41;;;;;;;15.27;6.40;;;;;;;6.56;84.80;95462.59;4913446;29;20052;-56
2022/11/11 08:52:07;;;;;;;16.63;6.40;;;;;;;6.88;81.76;95459.88;4914307;29;20044;-53
2022/11/11 08:54:34;;;;;;;13.63;6.00;;;;;;;6.90;82.68;95457.56;4913476;29;20080;-54
2022/11/11 08:57:01;;;;;;;11.00;5.63;;;;;;;7.94;79.05;95467.22;4913639;29;20072;-58
2022/11/11 08:59:28;;;;;;;11.77;5.88;;;;;;;7.29;80.12;95467.81;4914252;29;20047;-55
2022/11/11 09:01:54;;;;;;;11.43;6.07;;;;;;;7.19;81.02;95469.94;4913354;29;20048;-55
2022/11/11 09:04:21;;;;;;;13.48;6.57;;;;;;;7.05;82.56;95475.06;4913798;29;20185;-56
2022/11/11 09:07:10;;;;;;;19.20;7.50;;;;;;;6.76;85.18;95470.84;4912978;29;20623;-56
2022/11/11 09:09:36;;;;;;;12.80;6.35;;;;;;;7.57;83.15;95473.88;4913211;29;20095;-58
2022/11/11 09:12:03;;;;;;;15.10;6.00;;;;;;;8.34;80.40;95469.53;4913770;29;20750;-57
2022/11/11 09:14:30;;;;;;;16.52;7.47;;;;;;;9.21;78.42;95469.03;4913685;29;20531;-60
2022/11/11 09:16:57;;;;;;;14.40;7.53;;;;;;;10.30;72.32;95464.59;4913310;29;20106;-58
2022/11/11 09:19:23;;;;;;;11.60;5.53;;;;;;;10.94;69.76;95460.88;4913590;29;20475;-58
2022/11/11 09:21:51;;;;;;;11.65;6.05;;;;;;;11.18;69.27;95462.22;4912743;29;20552;-57
2022/11/11 09:24:18;;;;;;;9.07;5.10;;;;;;;10.56;71.78;95458.19;4913571;29;20056;-55
2022/11/11 09:26:49;;;;;;;9.57;5.30;;;;;;;10.36;73.39;95460.34;4912874;29;20458;-58
2022/11/11 09:29:16;;;;;;;9.30;5.55;;;;;;;10.36;73.34;95454.88;4913633;29;20044;-56
2022/11/11 09:31:44;;;;;;;8.93;5.80;;;;;;;10.64;72.39;95461.00;4912434;29;20056;-55
2022/11/11 09:34:13;;;;;;;10.40;5.78;;;;;;;10.84;71.88;95464.31;4896908;29;20052;-55
2022/11/11 09:36:40;;;;;;;10.18;5.53;;;;;;;10.91;70.95;95459.69;4912880;29;20047;-54
2022/11/11 09:39:07;;;;;;;9.80;5.80;;;;;;;11.32;71.20;95464.28;4910552;29;20052;-56
2022/11/11 09:41:49;;;;;;;10.63;6.05;;;;;;;11.40;70.32;95461.19;4893793;29;20044;-57
2022/11/11 09:44:47;;;;;;;8.97;5.03;;;;;;;12.66;66.18;95458.22;4894631;29;20052;-57
2022/11/11 09:47:13;;;;;;;8.10;4.90;;;;;;;12.94;64.81;95449.97;4893657;29;22092;-59
2022/11/11 09:49:49;;;;;;;8.70;5.32;;;;;;;12.47;66.09;95468.38;4893494;29;20049;-58
2022/11/11 09:52:32;;;;;;;8.77;5.07;;;;;;;13.13;63.65;95459.78;4894428;29;20052;-58
2022/11/11 09:55:03;;;;;;;8.30;5.03;;;;;;;12.19;65.37;95458.06;4876873;29;20704;-58
2022/11/11 09:57:47;;;;;;;7.63;4.73;;;;;;;12.78;64.99;95444.84;4894560;29;20048;-58
2022/11/11 10:00:27;;;;;;;7.53;4.30;;;;;;;12.87;63.84;95435.41;4893381;29;21292;-58
2022/11/11 10:02:59;;;;;;;8.48;4.20;;;;;;;12.74;63.87;95444.03;4893745;29;20048;-58
2022/11/11 10:05:39;;;;;;;6.75;4.05;;;;;;;12.18;66.07;95429.00;4894183;29;20044;-58
2022/11/11 10:08:12;;;;;;;7.28;4.07;;;;;;;11.17;69.30;95430.44;4892527;29;21520;-58
2022/11/11 10:10:40;;;;;;;7.37;4.40;;;;;;;10.63;71.59;95416.28;4893387;29;20056;-56
2022/11/11 10:13:18;;;;;;;6.75;4.15;;;;;;;9.65;75.51;95426.59;4893820;29;20056;-55
2022/11/11 10:16:09;;;;;;;6.78;4.32;;;;;;;9.80;75.96;95429.13;4893024;29;20056;-57
2022/11/11 10:19:11;;;;;;;6.50;4.13;;;;;;;10.44;73.52;95411.00;4892971;29;20052;-55
2022/11/11 10:21:48;;;;;;;8.07;4.18;;;;;;;10.66;73.01;95412.78;4892777;29;20049;-57
2022/11/11 10:24:39;;;;;;;6.87;4.20;;;;;;;11.05;71.40;95412.31;4893202;29;20478;-60
2022/11/11 10:27:21;;;;;;;7.85;4.05;;;;;;;10.90;70.51;95413.34;4893668;29;20045;-55
2022/11/11 10:29:49;;;;;;;6.50;3.90;;;;;;;10.76;72.46;95414.81;4892978;29;20356;-56
2022/11/11 10:32:23;;;;;;;6.22;3.78;;;;;;;10.61;73.43;95406.88;4893676;29;20063;-55
2022/11/11 10:34:50;;;;;;;6.38;4.00;;;;;;;10.55;73.65;95406.41;4893101;29;20044;-55
2022/11/11 10:37:23;;;;;;;7.03;4.00;;;;;;;10.71;73.65;95393.22;4893595;29;20063;-55
2022/11/11 10:40:11;;;;;;;7.28;4.18;;;;;;;10.66;72.63;95395.50;4900898;29;20054;-57
2022/11/11 10:42:37;;;;;;;6.75;3.95;;;;;;;9.83;75.84;95402.91;4910985;29;20048;-57
2022/11/11 10:45:21;;;;;;;9.38;4.30;;;;;;;9.43;78.08;95396.16;4911973;29;20055;-56
2022/11/11 10:47:57;;;;;;;9.00;4.47;;;;;;;9.23;79.91;95391.97;4911541;29;20047;-55
2022/11/11 10:50:34;;;;;;;11.00;4.63;;;;;;;8.93;81.83;95393.53;4912308;29;20489;-55
2022/11/11 10:53:29;;;;;;;11.32;4.63;;;;;;;9.06;81.92;95399.56;4911445;29;20644;-55
2022/11/11 10:56:02;;;;;;;7.53;4.15;;;;;;;9.57;80.48;95396.31;4911417;29;20411;-58
2022/11/11 10:59:08;;;;;;;9.32;4.53;;;;;;;8.77;82.98;95401.91;4912055;29;20054;-58
2022/11/11 11:02:18;;;;;;;10.15;5.18;;;;;;;8.62;85.59;95400.06;4862777;29;20056;-56
2022/11/11 11:04:49;;;;;;;7.17;3.87;;;;;;;8.84;84.16;95397.69;4852510;29;20050;-57
2022/11/11 11:07:21;;;;;;;9.32;4.38;;;;;;;9.53;82.84;95395.50;4885845;29;20055;-54
2022/11/11 11:09:56;;;;;;;8.73;4.53;;;;;;;9.07;83.19;95395.66;4911578;29;20052;-58
2022/11/11 11:12:34;;;;;;;7.75;4.18;;;;;;;8.88;84.76;95393.06;4895131;29;20063;-54
2022/11/11 11:15:05;;;;;;;8.05;4.63;;;;;;;9.01;83.71;95391.66;4910975;29;22500;-55
2022/11/11 11:17:39;;;;;;;7.83;3.90;;;;;;;9.48;83.21;95389.56;4912041;29;20052;-58
2022/11/11 11:20:14;;;;;;;7.97;4.40;;;;;;;9.76;80.32;95387.16;4914752;29;20102;-56
2022/11/11 11:22:47;;;;;;;7.82;4.10;;;;;;;9.30;82.13;95403.03;4914731;29;20044;-55
2022/11/11 11:25:14;;;;;;;8.02;4.30;;;;;;;9.55;82.47;95401.41;4915844;29;20158;-56
2022/11/11 11:27:41;;;;;;;9.00;4.88;;;;;;;9.75;80.76;95399.28;4914948;29;20048;-55
2022/11/11 11:30:34;;;;;;;7.93;4.50;;;;;;;9.47;81.08;95399.72;4915501;29;20115;-58
2022/11/11 11:33:04;;;;;;;9.27;5.00;;;;;;;9.10;83.47;95403.16;4912411;29;20044;-57
2022/11/11 11:35:45;;;;;;;9.13;4.93;;;;;;;8.72;85.39;95404.16;4915334;29;20056;-59
2022/11/11 11:38:12;;;;;;;9.48;5.05;;;;;;;8.89;86.27;95405.56;4914727;29;20834;-54
2022/11/11 11:40:51;;;;;;;9.80;5.32;;;;;;;9.16;85.99;95409.09;4899992;29;20056;-59
2022/11/11 11:43:44;;;;;;;10.93;6.03;;;;;;;9.49;84.86;95408.38;4896691;29;20053;-57
2022/11/11 11:46:19;;;;;;;13.48;6.90;;;;;;;9.33;84.12;95400.31;4893106;29;20053;-54
2022/11/11 11:49:04;;;;;;;13.50;7.00;;;;;;;9.28;84.80;95400.66;4879788;29;20057;-55
2022/11/11 11:52:06;;;;;;;13.75;6.97;;;;;;;9.45;83.53;95402.06;4896602;29;20470;-58
2022/11/11 11:54:44;;;;;;;10.90;6.10;;;;;;;9.17;85.40;95399.72;4895206;29;20754;-55
2022/11/11 11:57:34;;;;;;;11.43;6.50;;;;;;;9.02;86.41;95398.75;4896471;29;20048;-58
2022/11/11 12:00:21;;;;;;;12.15;6.32;;;;;;;8.94;86.97;95400.56;4895107;29;20796;-56
2022/11/11 12:03:22;;;;;;;13.05;6.60;;;;;;;9.25;85.63;95401.41;4895251;29;20112;-57
2022/11/11 12:05:54;;;;;;;11.10;6.32;;;;;;;9.14;86.19;95392.25;4894891;29;20252;-57
2022/11/11 12:08:36;;;;;;;12.68;6.65;;;;;;;9.09;86.36;95390.59;4895952;29;20045;-55
2022/11/11 12:11:20;;;;;;;11.50;6.50;;;;;;;9.28;85.18;95397.16;4895183;29;20868;-58
2022/11/11 12:14:16;;;;;;;12.90;6.68;;;;;;;9.04;86.14;95388.19;4895197;29;20044;-54
2022/11/11 12:16:49;;;;;;;11.60;6.53;;;;;;;9.26;85.11;95399.47;4895069;29;20079;-57
2022/11/11 12:19:34;;;;;;;13.13;6.43;;;;;;;9.19;85.36;95402.88;4896067;29;20060;-56
2022/11/11 12:22:12;;;;;;;11.75;6.60;;;;;;;8.93;86.17;95393.53;4894577;29;20625;-55
2022/11/11 12:24:54;;;;;;;13.43;6.63;;;;;;;9.21;86.05;95400.56;4895330;29;20048;-54
2022/11/11 12:27:34;;;;;;;11.27;6.60;;;;;;;8.98;86.02;95400.63;4896030;29;20040;-57
2022/11/11 12:30:09;;;;;;;12.80;6.63;;;;;;;9.38;85.07;95400.00;4877195;29;20909;-58
2022/11/11 12:33:11;;;;;;;12.50;6.78;;;;;;;9.59;83.68;95401.44;4895055;29;20405;-54
2022/11/11 12:35:55;;;;;;;13.40;7.47;;;;;;;9.15;84.78;95402.81;4873963;29;20070;-57
2022/11/11 12:38:45;;;;;;;14.53;7.23;;;;;;;9.30;84.67;95400.31;4895454;29;20068;-56
2022/11/11 12:41:12;;;;;;;15.27;7.47;;;;;;;9.42;85.09;95407.47;4894908;29;21415;-55
2022/11/11 12:44:02;;;;;;;14.27;7.43;;;;;;;9.06;86.06;95398.78;4894952;29;20052;-55
2022/11/11 12:46:44;;;;;;;14.93;7.05;;;;;;;8.98;85.76;95406.09;4895274;29;20509;-56
2022/11/11 12:49:29;;;;;;;15.05;7.25;;;;;;;9.07;86.55;95397.63;4894516;29;21693;-57
2022/11/11 12:52:15;;;;;;;13.70;7.17;;;;;;;8.89;86.98;95392.66;4894498;29;20111;-57
2022/11/11 12:55:15;;;;;;;12.20;6.57;;;;;;;9.10;86.31;95391.41;4894711;29;20045;-55
2022/11/11 12:58:03;;;;;;;12.88;6.53;;;;;;;9.00;87.03;95388.16;4894876;29;20063;-58